createdAt,value
2016-09-16T13:45:09.767Z,1008.79
2016-09-16T13:45:50.456Z,1008.8
2016-09-16T13:46:31.159Z,1008.85
2016-09-16T13:47:11.840Z,1008.81
2016-09-16T13:47:52.517Z,1008.87
2016-09-16T13:48:33.201Z,1008.8
2016-09-16T13:49:13.852Z,1008.85
2016-09-16T13:49:54.549Z,1008.91
2016-09-16T13:50:35.279Z,1008.89
2016-09-16T13:51:16.016Z,1008.9
2016-09-16T13:51:56.701Z,1008.87
2016-09-16T13:52:37.392Z,1008.94
2016-09-16T13:53:18.100Z,1008.92
2016-09-16T13:53:58.782Z,1008.96
2016-09-16T13:54:39.545Z,1008.95
2016-09-16T13:55:20.213Z,1009
2016-09-16T13:56:00.981Z,1008.99
2016-09-16T13:56:41.696Z,1009.01
2016-09-16T13:57:22.348Z,1009.05
2016-09-16T13:58:03.029Z,1009.08
2016-09-16T13:58:43.716Z,1009.11
2016-09-16T13:59:24.399Z,1009.12
2016-09-16T14:00:05.118Z,1009.14
2016-09-16T14:00:45.805Z,1009.15
2016-09-16T14:01:26.536Z,1009.2
2016-09-16T14:02:07.246Z,1009.16
2016-09-16T14:02:47.997Z,1009.1
2016-09-16T14:03:29.142Z,1009.1
2016-09-16T14:04:10.077Z,1009.13
2016-09-16T14:04:51.003Z,1009.15
2016-09-16T14:05:31.968Z,1009.13
2016-09-16T14:06:13.037Z,1009.17
2016-09-16T14:06:53.941Z,1009.14
2016-09-16T14:07:34.959Z,1009.15
2016-09-16T14:08:15.830Z,1009.14
2016-09-16T14:08:56.828Z,1009.16
2016-09-16T14:09:38.535Z,1009.18
2016-09-16T14:10:19.325Z,1009.16
2016-09-16T14:11:00.039Z,1009.19
2016-09-16T14:11:40.779Z,1009.14
2016-09-16T14:12:21.509Z,1009.18
2016-09-16T14:13:02.256Z,1009.19
2016-09-16T14:13:43.028Z,1009.15
2016-09-16T14:14:23.714Z,1009.21
2016-09-16T14:15:04.395Z,1009.2
2016-09-16T14:15:45.118Z,1009.19
2016-09-16T14:16:25.796Z,1009.12
2016-09-16T14:17:06.519Z,1009.15
2016-09-16T14:17:47.203Z,1009.13
2016-09-16T14:18:27.887Z,1009.12
2016-09-16T14:19:08.547Z,1009.13
2016-09-16T14:19:49.217Z,1009.14
2016-09-16T14:20:29.900Z,1009.14
2016-09-16T14:21:10.617Z,1009.16
2016-09-16T14:21:51.324Z,1009.2
2016-09-16T14:22:31.983Z,1009.17
2016-09-16T14:23:12.693Z,1009.22
2016-09-16T14:23:53.350Z,1009.17
2016-09-16T14:24:34.058Z,1009.22
2016-09-16T14:25:14.770Z,1009.21
2016-09-16T14:25:55.470Z,1009.23
2016-09-16T14:26:36.106Z,1009.2
2016-09-16T14:27:16.790Z,1009.22
2016-09-16T14:27:57.497Z,1009.18
2016-09-16T14:28:38.162Z,1009.19
2016-09-16T14:29:18.800Z,1009.17
2016-09-16T14:29:59.503Z,1009.18
2016-09-16T14:30:40.217Z,1009.23
2016-09-16T14:31:20.967Z,1009.17
2016-09-16T14:32:01.592Z,1009.17
2016-09-16T14:32:42.300Z,1009.13
2016-09-16T14:33:23.051Z,1009.09
2016-09-16T14:34:03.738Z,1009.09
2016-09-16T14:34:44.431Z,1009.11
2016-09-16T14:35:25.174Z,1009.09
2016-09-16T14:36:05.856Z,1009.12
2016-09-16T14:36:46.548Z,1009.13
2016-09-16T14:37:27.283Z,1009.1
2016-09-16T14:38:08.016Z,1009.08
2016-09-16T14:38:48.744Z,1009.09
2016-09-16T14:39:29.481Z,1009.1
2016-09-16T14:40:10.199Z,1009.12
2016-09-16T14:40:50.889Z,1009.09
2016-09-16T14:41:31.548Z,1009.13
2016-09-16T14:42:12.206Z,1009.09
2016-09-16T14:42:52.903Z,1009.11
2016-09-16T14:43:33.607Z,1009.1
2016-09-16T14:44:14.292Z,1009.11
2016-09-16T14:44:55.026Z,1009.17
2016-09-16T14:45:35.722Z,1009.16
2016-09-16T14:46:16.674Z,1009.15
2016-09-16T14:46:57.372Z,1009.11
2016-09-16T14:47:38.081Z,1009.15
2016-09-16T14:48:18.803Z,1009.12
2016-09-16T14:48:59.497Z,1009.16
2016-09-16T14:49:40.195Z,1009.16
2016-09-16T14:50:20.948Z,1009.18
2016-09-16T14:51:01.613Z,1009.16
2016-09-16T14:51:42.328Z,1009.18
2016-09-16T14:52:23.028Z,1009.16
2016-09-16T14:53:03.708Z,1009.19
2016-09-16T14:53:44.394Z,1009.19
2016-09-16T14:54:25.034Z,1009.21
2016-09-16T14:55:05.742Z,1009.23
2016-09-16T14:55:46.424Z,1009.2
2016-09-16T14:56:27.166Z,1009.18
2016-09-16T14:57:07.860Z,1009.21
2016-09-16T14:57:48.582Z,1009.17
2016-09-16T14:58:29.283Z,1009.17
2016-09-16T14:59:10.008Z,1009.15
2016-09-16T14:59:50.700Z,1009.14
2016-09-16T15:00:31.390Z,1009.16
2016-09-16T15:01:12.189Z,1009.13
2016-09-16T15:01:52.944Z,1009.1
2016-09-16T15:02:33.613Z,1009.09
2016-09-16T15:03:14.339Z,1009.08
2016-09-16T15:03:55.069Z,1009.08
2016-09-16T15:04:35.776Z,1009.06
2016-09-16T15:05:16.494Z,1009.05
2016-09-16T15:05:57.235Z,1009.12
2016-09-16T15:06:37.939Z,1009.11
2016-09-16T15:07:18.692Z,1009.12
2016-09-16T15:07:59.382Z,1009.14
2016-09-16T15:08:40.090Z,1009.15
2016-09-16T15:09:20.771Z,1009.15
2016-09-16T15:10:01.468Z,1009.15
2016-09-16T15:10:42.172Z,1009.13
2016-09-16T15:11:22.899Z,1009.15
2016-09-16T15:12:03.613Z,1009.15
2016-09-16T15:12:44.324Z,1009.12
2016-09-16T15:13:25.062Z,1009.13
2016-09-16T15:14:05.776Z,1009.15
2016-09-16T15:14:46.460Z,1009.14
2016-09-16T15:15:27.198Z,1009.14
2016-09-16T15:16:07.845Z,1009.13
2016-09-16T15:16:48.547Z,1009.13
2016-09-16T15:17:29.319Z,1009.15
2016-09-16T15:18:09.989Z,1009.11
2016-09-16T15:18:50.770Z,1009.13
2016-09-16T15:19:31.458Z,1009.12
2016-09-16T15:20:12.128Z,1009.11
2016-09-16T15:20:52.808Z,1009.12
2016-09-16T15:21:33.469Z,1009.11
2016-09-16T15:22:14.155Z,1009.1
2016-09-16T15:22:54.824Z,1009.12
2016-09-16T15:23:35.487Z,1009.16
2016-09-16T15:24:16.161Z,1009.1
2016-09-16T15:24:56.875Z,1009.16
2016-09-16T15:25:37.540Z,1009.19
2016-09-16T15:26:18.223Z,1009.17
2016-09-16T15:26:58.900Z,1009.15
2016-09-16T15:27:39.567Z,1009.15
2016-09-16T15:28:20.251Z,1009.14
2016-09-16T15:29:01.041Z,1009.15
2016-09-16T15:29:41.635Z,1009.16
2016-09-16T15:30:22.353Z,1009.19
2016-09-16T15:31:03.038Z,1009.15
2016-09-16T15:31:43.695Z,1009.15
2016-09-16T15:32:24.396Z,1009.18
2016-09-16T15:33:05.072Z,1009.22
2016-09-16T15:33:45.755Z,1009.2
2016-09-16T15:34:26.492Z,1009.25
2016-09-16T15:35:07.204Z,1009.28
2016-09-16T15:35:47.873Z,1009.3
2016-09-16T15:36:28.589Z,1009.32
2016-09-16T15:37:09.272Z,1009.33
2016-09-16T15:37:49.988Z,1009.32
2016-09-16T15:38:30.677Z,1009.33
2016-09-16T15:39:11.349Z,1009.3
2016-09-16T15:39:51.992Z,1009.32
2016-09-16T15:40:32.678Z,1009.31
2016-09-16T15:41:13.417Z,1009.29
2016-09-16T15:41:54.083Z,1009.3
2016-09-16T15:42:34.813Z,1009.3
2016-09-16T15:43:15.504Z,1009.28
2016-09-16T15:43:56.189Z,1009.3
2016-09-16T15:44:36.908Z,1009.29
2016-09-16T15:45:17.584Z,1009.29
2016-09-16T15:45:58.293Z,1009.3
2016-09-16T15:46:38.960Z,1009.31
2016-09-16T15:47:19.665Z,1009.3
2016-09-16T15:48:00.362Z,1009.31
2016-09-16T15:48:41.082Z,1009.3
2016-09-16T15:49:21.734Z,1009.3
2016-09-16T15:50:02.402Z,1009.31
2016-09-16T15:50:43.076Z,1009.27
2016-09-16T15:51:23.761Z,1009.29
2016-09-16T15:52:04.474Z,1009.29
2016-09-16T15:52:45.161Z,1009.29
2016-09-16T15:53:25.817Z,1009.3
2016-09-16T15:54:06.537Z,1009.29
2016-09-16T15:54:47.242Z,1009.28
2016-09-16T15:55:27.934Z,1009.27
2016-09-16T15:56:08.628Z,1009.27
2016-09-16T15:56:49.338Z,1009.24
2016-09-16T15:57:30.052Z,1009.24
2016-09-16T15:58:10.796Z,1009.21
2016-09-16T15:58:51.478Z,1009.24
2016-09-16T15:59:32.182Z,1009.27
2016-09-16T16:00:12.874Z,1009.21
2016-09-16T16:00:53.553Z,1009.27
2016-09-16T16:01:34.228Z,1009.31
2016-09-16T16:02:14.899Z,1009.33
2016-09-16T16:02:55.564Z,1009.31
2016-09-16T16:03:36.232Z,1009.28
2016-09-16T16:04:16.882Z,1009.34
2016-09-16T16:04:57.619Z,1009.35
2016-09-16T16:05:38.301Z,1009.38
2016-09-16T16:06:18.957Z,1009.36
2016-09-16T16:06:59.659Z,1009.37
2016-09-16T16:07:40.357Z,1009.39
2016-09-16T16:08:20.989Z,1009.39
2016-09-16T16:09:01.669Z,1009.4
2016-09-16T16:09:42.365Z,1009.44
2016-09-16T16:10:22.999Z,1009.43
2016-09-16T16:11:03.661Z,1009.45
2016-09-16T16:11:44.343Z,1009.43
2016-09-16T16:12:25.001Z,1009.44
2016-09-16T16:13:05.698Z,1009.42
2016-09-16T16:13:46.398Z,1009.43
2016-09-16T16:14:27.070Z,1009.43
2016-09-16T16:15:07.749Z,1009.46
2016-09-16T16:15:48.432Z,1009.47
2016-09-16T16:16:29.176Z,1009.47
2016-09-16T16:17:09.862Z,1009.47
2016-09-16T16:17:50.588Z,1009.5
2016-09-16T16:18:31.330Z,1009.55
2016-09-16T16:19:12.071Z,1009.51
2016-09-16T16:19:52.810Z,1009.52
2016-09-16T16:20:33.629Z,1009.57
2016-09-16T16:21:14.341Z,1009.56
2016-09-16T16:21:55.084Z,1009.57
2016-09-16T16:22:35.818Z,1009.57
2016-09-16T16:23:16.559Z,1009.57
2016-09-16T16:23:57.266Z,1009.58
2016-09-16T16:24:37.937Z,1009.56
2016-09-16T16:25:18.684Z,1009.61
2016-09-16T16:25:59.390Z,1009.62
2016-09-16T16:26:40.143Z,1009.66
2016-09-16T16:27:20.873Z,1009.61
2016-09-16T16:28:01.603Z,1009.63
2016-09-16T16:28:42.305Z,1009.67
2016-09-16T16:29:23.005Z,1009.67
2016-09-16T16:30:03.694Z,1009.67
2016-09-16T16:30:44.448Z,1009.67
2016-09-16T16:31:25.146Z,1009.68
2016-09-16T16:32:06.009Z,1009.68
2016-09-16T16:32:46.736Z,1009.67
2016-09-16T16:33:27.455Z,1009.65
2016-09-16T16:34:08.214Z,1009.64
2016-09-16T16:34:48.929Z,1009.67
2016-09-16T16:35:29.700Z,1009.63
2016-09-16T16:36:10.489Z,1009.65
2016-09-16T16:36:51.283Z,1009.68
2016-09-16T16:37:31.955Z,1009.67
2016-09-16T16:38:12.630Z,1009.69
2016-09-16T16:38:53.322Z,1009.68
2016-09-16T16:39:34.009Z,1009.71
2016-09-16T16:40:14.655Z,1009.75
2016-09-16T16:40:55.334Z,1009.74
2016-09-16T16:41:36.031Z,1009.79
2016-09-16T16:42:16.692Z,1009.79
2016-09-16T16:42:57.392Z,1009.77
2016-09-16T16:43:38.098Z,1009.8
2016-09-16T16:44:18.768Z,1009.8
2016-09-16T16:44:59.458Z,1009.82
2016-09-16T16:45:40.179Z,1009.82
2016-09-16T16:46:20.872Z,1009.83
2016-09-16T16:47:01.583Z,1009.82
2016-09-16T16:47:42.275Z,1009.85
2016-09-16T16:48:22.963Z,1009.82
2016-09-16T16:49:03.631Z,1009.8
2016-09-16T16:49:44.362Z,1009.81
2016-09-16T16:50:25.057Z,1009.8
2016-09-16T16:51:05.769Z,1009.83
2016-09-16T16:51:46.457Z,1009.84
2016-09-16T16:52:27.142Z,1009.84
2016-09-16T16:53:07.779Z,1009.84
2016-09-16T16:53:48.408Z,1009.87
2016-09-16T16:54:29.119Z,1009.86
2016-09-16T16:55:09.813Z,1009.85
2016-09-16T16:55:50.486Z,1009.85
2016-09-16T16:56:31.147Z,1009.85
2016-09-16T16:57:11.796Z,1009.85
2016-09-16T16:57:52.523Z,1009.9
2016-09-16T16:58:33.208Z,1009.91
2016-09-16T16:59:13.926Z,1009.88
2016-09-16T16:59:54.588Z,1009.94
2016-09-16T17:00:35.261Z,1009.89
2016-09-16T17:01:15.950Z,1009.9
2016-09-16T17:01:56.637Z,1009.92
2016-09-16T17:02:37.293Z,1009.94
2016-09-16T17:03:17.989Z,1009.94
2016-09-16T17:03:58.642Z,1009.99
2016-09-16T17:04:39.291Z,1009.97
2016-09-16T17:05:19.963Z,1009.96
2016-09-16T17:06:00.619Z,1010
2016-09-16T17:06:41.310Z,1010
2016-09-16T17:07:21.947Z,1009.99
2016-09-16T17:08:02.638Z,1009.96
2016-09-16T17:08:43.372Z,1010.01
2016-09-16T17:09:24.105Z,1009.98
2016-09-16T17:10:04.835Z,1010.01
2016-09-16T17:10:45.551Z,1010.03
2016-09-16T17:11:26.254Z,1010.09
2016-09-16T17:12:06.945Z,1010.06
2016-09-16T17:12:47.646Z,1010.03
2016-09-16T17:13:28.280Z,1010.12
2016-09-16T17:14:08.951Z,1010.09
2016-09-16T17:14:49.640Z,1010.13
2016-09-16T17:15:30.288Z,1010.12
2016-09-16T17:16:10.954Z,1010.09
2016-09-16T17:16:51.610Z,1010.1
2016-09-16T17:17:32.289Z,1010.06
2016-09-16T17:18:13.003Z,1010.12
2016-09-16T17:18:53.693Z,1010.1
2016-09-16T17:19:34.427Z,1010.1
2016-09-16T17:20:15.133Z,1010.09
2016-09-16T17:20:55.858Z,1010.08
2016-09-16T17:21:36.507Z,1010.12
2016-09-16T17:22:17.226Z,1010.07
2016-09-16T17:22:57.851Z,1010.1
2016-09-16T17:23:38.547Z,1010.08
2016-09-16T17:24:19.247Z,1010.11
2016-09-16T17:24:59.966Z,1010.17
2016-09-16T17:25:40.694Z,1010.12
2016-09-16T17:26:21.391Z,1010.11
2016-09-16T17:27:02.085Z,1010.17
2016-09-16T17:27:42.738Z,1010.15
2016-09-16T17:28:23.412Z,1010.15
2016-09-16T17:29:04.111Z,1010.13
2016-09-16T17:29:44.800Z,1010.12
2016-09-16T17:30:25.487Z,1010.16
2016-09-16T17:31:06.133Z,1010.15
2016-09-16T17:31:46.848Z,1010.16
2016-09-16T17:32:27.527Z,1010.21
2016-09-16T17:33:08.169Z,1010.2
2016-09-16T17:33:48.884Z,1010.22
2016-09-16T17:34:29.598Z,1010.26
2016-09-16T17:35:10.235Z,1010.24
2016-09-16T17:35:50.914Z,1010.25
2016-09-16T17:36:31.602Z,1010.26
2016-09-16T17:37:12.348Z,1010.24
2016-09-16T17:37:53.027Z,1010.31
2016-09-16T17:38:33.710Z,1010.29
2016-09-16T17:39:14.359Z,1010.3
2016-09-16T17:39:55.017Z,1010.29
2016-09-16T17:40:35.702Z,1010.3
2016-09-16T17:41:16.395Z,1010.34
2016-09-16T17:41:57.054Z,1010.28
2016-09-16T17:42:37.755Z,1010.3
2016-09-16T17:43:18.460Z,1010.33
2016-09-16T17:43:59.118Z,1010.3
2016-09-16T17:44:39.816Z,1010.32
2016-09-16T17:45:20.520Z,1010.3
2016-09-16T17:46:01.257Z,1010.33
2016-09-16T17:46:41.926Z,1010.31
2016-09-16T17:47:22.676Z,1010.32
2016-09-16T17:48:03.352Z,1010.34
2016-09-16T17:48:44.026Z,1010.39
2016-09-16T17:49:24.697Z,1010.36
2016-09-16T17:50:05.420Z,1010.41
2016-09-16T17:50:46.082Z,1010.41
2016-09-16T17:51:26.768Z,1010.42
2016-09-16T17:52:07.474Z,1010.39
2016-09-16T17:52:48.167Z,1010.46
2016-09-16T17:53:28.844Z,1010.45
2016-09-16T17:54:09.512Z,1010.5
2016-09-16T17:54:50.167Z,1010.5
2016-09-16T17:55:30.871Z,1010.49
2016-09-16T17:56:11.591Z,1010.51
2016-09-16T17:56:52.298Z,1010.52
2016-09-16T17:57:33.046Z,1010.51
2016-09-16T17:58:13.715Z,1010.52
2016-09-16T17:58:54.393Z,1010.51
2016-09-16T17:59:35.073Z,1010.53
2016-09-16T18:00:15.812Z,1010.53
2016-09-16T18:00:56.507Z,1010.52
2016-09-16T18:01:37.147Z,1010.52
2016-09-16T18:02:17.824Z,1010.52
2016-09-16T18:02:58.575Z,1010.54
2016-09-16T18:03:39.257Z,1010.53
2016-09-16T18:04:19.957Z,1010.54
2016-09-16T18:05:00.614Z,1010.55
2016-09-16T18:05:41.252Z,1010.54
2016-09-16T18:06:21.975Z,1010.56
2016-09-16T18:07:02.638Z,1010.55
2016-09-16T18:07:43.329Z,1010.57
2016-09-16T18:08:23.974Z,1010.61
2016-09-16T18:09:04.657Z,1010.61
2016-09-16T18:09:45.373Z,1010.62
2016-09-16T18:10:26.042Z,1010.61
2016-09-16T18:11:06.739Z,1010.6
2016-09-16T18:11:47.435Z,1010.59
2016-09-16T18:12:28.126Z,1010.59
2016-09-16T18:13:08.813Z,1010.62
2016-09-16T18:13:49.514Z,1010.57
2016-09-16T18:14:30.153Z,1010.57
2016-09-16T18:15:10.822Z,1010.57
2016-09-16T18:15:51.501Z,1010.56
2016-09-16T18:16:32.157Z,1010.57
2016-09-16T18:17:12.870Z,1010.56
2016-09-16T18:17:53.507Z,1010.55
2016-09-16T18:18:34.219Z,1010.56
2016-09-16T18:19:14.896Z,1010.62
2016-09-16T18:19:55.579Z,1010.62
2016-09-16T18:20:36.256Z,1010.62
2016-09-16T18:21:17.017Z,1010.59
2016-09-16T18:21:57.655Z,1010.61
2016-09-16T18:22:38.373Z,1010.63
2016-09-16T18:23:19.094Z,1010.61
2016-09-16T18:23:59.797Z,1010.63
2016-09-16T18:24:40.474Z,1010.59
2016-09-16T18:25:21.168Z,1010.61
2016-09-16T18:26:01.870Z,1010.64
2016-09-16T18:26:42.551Z,1010.62
2016-09-16T18:27:23.247Z,1010.67
2016-09-16T18:28:03.869Z,1010.66
2016-09-16T18:28:44.588Z,1010.64
2016-09-16T18:29:25.275Z,1010.68
2016-09-16T18:30:05.984Z,1010.7
2016-09-16T18:30:46.695Z,1010.69
2016-09-16T18:31:27.350Z,1010.71
2016-09-16T18:32:08.064Z,1010.68
2016-09-16T18:32:48.690Z,1010.72
2016-09-16T18:33:29.376Z,1010.72
2016-09-16T18:34:10.095Z,1010.76
2016-09-16T18:34:50.753Z,1010.74
2016-09-16T18:35:31.487Z,1010.77
2016-09-16T18:36:12.150Z,1010.78
2016-09-16T18:36:52.831Z,1010.77
2016-09-16T18:37:33.537Z,1010.81
2016-09-16T18:38:14.227Z,1010.84
2016-09-16T18:38:54.946Z,1010.82
2016-09-16T18:39:35.656Z,1010.88
2016-09-16T18:40:16.346Z,1010.89
2016-09-16T18:40:57.010Z,1010.88
2016-09-16T18:41:37.692Z,1010.89
2016-09-16T18:42:18.411Z,1010.89
2016-09-16T18:42:59.072Z,1010.91
2016-09-16T18:43:39.767Z,1010.91
2016-09-16T18:44:20.469Z,1010.94
2016-09-16T18:45:01.154Z,1010.9
2016-09-16T18:45:41.880Z,1010.92
2016-09-16T18:46:22.563Z,1010.94
2016-09-16T18:47:03.248Z,1010.96
2016-09-16T18:47:43.979Z,1010.97
2016-09-16T18:48:24.684Z,1010.99
2016-09-16T18:49:05.366Z,1010.98
2016-09-16T18:49:46.094Z,1010.99
2016-09-16T18:50:26.779Z,1011.04
2016-09-16T18:51:07.482Z,1011.01
2016-09-16T18:51:48.147Z,1011.04
2016-09-16T18:52:28.831Z,1011.03
2016-09-16T18:53:09.449Z,1011.05
2016-09-16T18:53:50.140Z,1011.04
2016-09-16T18:54:30.788Z,1011.04
2016-09-16T18:55:11.532Z,1011.04
2016-09-16T18:55:52.222Z,1011.03
2016-09-16T18:56:32.954Z,1011.03
2016-09-16T18:57:13.636Z,1011.07
2016-09-16T18:57:54.329Z,1011.04
2016-09-16T18:58:35.013Z,1011.05
2016-09-16T18:59:15.658Z,1011.04
2016-09-16T18:59:56.340Z,1011.04
2016-09-16T19:00:37.042Z,1011.06
2016-09-16T19:01:17.697Z,1011.1
2016-09-16T19:01:58.371Z,1011.12
2016-09-16T19:02:39.068Z,1011.12
2016-09-16T19:03:19.766Z,1011.16
2016-09-16T19:04:00.458Z,1011.16
2016-09-16T19:04:41.167Z,1011.18
2016-09-16T19:05:21.857Z,1011.15
2016-09-16T19:06:02.568Z,1011.17
2016-09-16T19:06:43.233Z,1011.2
2016-09-16T19:07:23.903Z,1011.26
2016-09-16T19:08:04.583Z,1011.25
2016-09-16T19:08:45.306Z,1011.23
2016-09-16T19:09:26.007Z,1011.26
2016-09-16T19:10:06.710Z,1011.27
2016-09-16T19:10:47.366Z,1011.28
2016-09-16T19:11:28.056Z,1011.26
2016-09-16T19:12:08.746Z,1011.28
2016-09-16T19:12:49.450Z,1011.24
2016-09-16T19:13:30.130Z,1011.29
2016-09-16T19:14:10.815Z,1011.25
2016-09-16T19:14:51.516Z,1011.26
2016-09-16T19:15:32.172Z,1011.28
2016-09-16T19:16:12.911Z,1011.27
2016-09-16T19:16:53.646Z,1011.28
2016-09-16T19:17:34.302Z,1011.3
2016-09-16T19:18:14.970Z,1011.31
2016-09-16T19:18:55.667Z,1011.31
2016-09-16T19:19:36.361Z,1011.35
2016-09-16T19:20:17.112Z,1011.35
2016-09-16T19:20:57.804Z,1011.38
2016-09-16T19:21:38.434Z,1011.41
2016-09-16T19:22:19.149Z,1011.4
2016-09-16T19:22:59.868Z,1011.41
2016-09-16T19:23:40.541Z,1011.44
2016-09-16T19:24:21.208Z,1011.45
2016-09-16T19:25:01.876Z,1011.48
2016-09-16T19:25:42.590Z,1011.5
2016-09-16T19:26:23.255Z,1011.5
2016-09-16T19:27:03.976Z,1011.53
2016-09-16T19:27:44.656Z,1011.51
2016-09-16T19:28:25.298Z,1011.52
2016-09-16T19:29:06.002Z,1011.56
2016-09-16T19:29:46.697Z,1011.58
2016-09-16T19:30:27.350Z,1011.58
2016-09-16T19:31:08.042Z,1011.6
2016-09-16T19:31:48.717Z,1011.57
2016-09-16T19:32:29.445Z,1011.63
2016-09-16T19:33:10.093Z,1011.62
2016-09-16T19:33:50.820Z,1011.6
2016-09-16T19:34:31.517Z,1011.63
2016-09-16T19:35:12.190Z,1011.62
2016-09-16T19:35:52.863Z,1011.63
2016-09-16T19:36:33.506Z,1011.65
2016-09-16T19:37:14.191Z,1011.64
2016-09-16T19:37:54.859Z,1011.68
2016-09-16T19:38:35.532Z,1011.69
2016-09-16T19:39:16.233Z,1011.69
2016-09-16T19:39:56.936Z,1011.73
2016-09-16T19:40:37.621Z,1011.73
2016-09-16T19:41:18.331Z,1011.71
2016-09-16T19:41:59.019Z,1011.71
2016-09-16T19:42:39.683Z,1011.74
2016-09-16T19:43:20.363Z,1011.76
2016-09-16T19:44:01.060Z,1011.75
2016-09-16T19:44:41.690Z,1011.78
2016-09-16T19:45:22.329Z,1011.8
2016-09-16T19:46:03.037Z,1011.82
2016-09-16T19:46:43.765Z,1011.79
2016-09-16T19:47:24.479Z,1011.8
2016-09-16T19:48:05.226Z,1011.8
2016-09-16T19:48:45.898Z,1011.81
2016-09-16T19:49:26.592Z,1011.82
2016-09-16T19:50:07.272Z,1011.78
2016-09-16T19:50:47.923Z,1011.82
2016-09-16T19:51:28.571Z,1011.82
2016-09-16T19:52:09.285Z,1011.86
2016-09-16T19:52:49.904Z,1011.83
2016-09-16T19:53:30.564Z,1011.82
2016-09-16T19:54:11.247Z,1011.83
2016-09-16T19:54:51.924Z,1011.86
2016-09-16T19:55:32.640Z,1011.84
2016-09-16T19:56:13.325Z,1011.88
2016-09-16T19:56:54.017Z,1011.92
2016-09-16T19:57:34.739Z,1011.88
2016-09-16T19:58:15.415Z,1011.9
2016-09-16T19:58:56.080Z,1011.91
2016-09-16T19:59:36.738Z,1011.94
2016-09-16T20:00:17.418Z,1011.92
2016-09-16T20:00:58.109Z,1011.93
2016-09-16T20:01:38.807Z,1011.93
2016-09-16T20:02:19.484Z,1011.95
2016-09-16T20:03:00.126Z,1011.97
2016-09-16T20:03:40.807Z,1011.97
2016-09-16T20:04:21.455Z,1011.97
2016-09-16T20:05:02.143Z,1011.95
2016-09-16T20:05:42.801Z,1011.95
2016-09-16T20:06:23.432Z,1012
2016-09-16T20:07:04.127Z,1011.98
2016-09-16T20:07:44.795Z,1012.01
2016-09-16T20:08:25.491Z,1012.01
2016-09-16T20:09:06.181Z,1012.03
2016-09-16T20:09:46.826Z,1012.09
2016-09-16T20:10:27.519Z,1012.08
2016-09-16T20:11:08.258Z,1012.08
2016-09-16T20:11:48.913Z,1012.1
2016-09-16T20:12:29.660Z,1012.11
2016-09-16T20:13:10.325Z,1012.14
2016-09-16T20:13:51.009Z,1012.13
2016-09-16T20:14:31.684Z,1012.17
2016-09-16T20:15:12.331Z,1012.15
2016-09-16T20:15:53.024Z,1012.15
2016-09-16T20:16:33.669Z,1012.18
2016-09-16T20:17:14.365Z,1012.15
2016-09-16T20:17:55.062Z,1012.17
2016-09-16T20:18:35.764Z,1012.18
2016-09-16T20:19:16.420Z,1012.2
2016-09-16T20:19:57.120Z,1012.17
2016-09-16T20:20:37.798Z,1012.19
2016-09-16T20:21:18.461Z,1012.18
2016-09-16T20:21:59.109Z,1012.16
2016-09-16T20:22:39.859Z,1012.22
2016-09-16T20:23:20.516Z,1012.22
2016-09-16T20:24:01.183Z,1012.24
2016-09-16T20:24:41.870Z,1012.26
2016-09-16T20:25:22.579Z,1012.23
2016-09-16T20:26:03.290Z,1012.23
2016-09-16T20:26:43.952Z,1012.22
2016-09-16T20:27:24.618Z,1012.23
2016-09-16T20:28:05.336Z,1012.26
2016-09-16T20:28:46.021Z,1012.23
2016-09-16T20:29:26.694Z,1012.22
2016-09-16T20:30:07.377Z,1012.24
2016-09-16T20:30:47.998Z,1012.24
2016-09-16T20:31:28.642Z,1012.25
2016-09-16T20:32:09.320Z,1012.27
2016-09-16T20:32:49.962Z,1012.29
2016-09-16T20:33:30.654Z,1012.29
2016-09-16T20:34:11.335Z,1012.27
2016-09-16T20:34:52.062Z,1012.3
2016-09-16T20:35:32.739Z,1012.26
2016-09-16T20:36:13.460Z,1012.27
2016-09-16T20:36:54.149Z,1012.25
2016-09-16T20:37:34.846Z,1012.25
2016-09-16T20:38:15.512Z,1012.2
2016-09-16T20:38:56.210Z,1012.24
2016-09-16T20:39:36.899Z,1012.23
2016-09-16T20:40:17.600Z,1012.21
2016-09-16T20:40:58.252Z,1012.23
2016-09-16T20:41:38.958Z,1012.17
2016-09-16T20:42:19.584Z,1012.25
2016-09-16T20:43:00.292Z,1012.26
2016-09-16T20:43:40.966Z,1012.2
2016-09-16T20:44:21.598Z,1012.26
2016-09-16T20:45:02.330Z,1012.26
2016-09-16T20:45:42.969Z,1012.25
2016-09-16T20:46:23.649Z,1012.24
2016-09-16T20:47:04.356Z,1012.27
2016-09-16T20:47:44.993Z,1012.21
2016-09-16T20:48:25.671Z,1012.23
2016-09-16T20:49:06.359Z,1012.25
2016-09-16T20:49:47.032Z,1012.23
2016-09-16T20:50:27.730Z,1012.25
2016-09-16T20:51:08.437Z,1012.23
2016-09-16T20:51:49.123Z,1012.29
2016-09-16T20:52:29.809Z,1012.3
2016-09-16T20:53:10.454Z,1012.3
2016-09-16T20:53:51.130Z,1012.27
2016-09-16T20:54:31.844Z,1012.26
2016-09-16T20:55:12.528Z,1012.27
2016-09-16T20:55:53.252Z,1012.26
2016-09-16T20:56:33.942Z,1012.25
2016-09-16T20:57:14.655Z,1012.21
2016-09-16T20:57:55.327Z,1012.28
2016-09-16T20:58:36.040Z,1012.25
2016-09-16T20:59:16.757Z,1012.27
2016-09-16T20:59:57.381Z,1012.25
2016-09-16T21:00:38.095Z,1012.25
2016-09-16T21:01:18.768Z,1012.24
2016-09-16T21:01:59.435Z,1012.27
2016-09-16T21:02:40.181Z,1012.24
2016-09-16T21:03:20.832Z,1012.25
2016-09-16T21:04:01.526Z,1012.28
2016-09-16T21:04:42.183Z,1012.26
2016-09-16T21:05:22.877Z,1012.29
2016-09-16T21:06:03.570Z,1012.25
2016-09-16T21:06:44.246Z,1012.24
2016-09-16T21:07:24.947Z,1012.23
2016-09-16T21:08:05.634Z,1012.25
2016-09-16T21:08:46.289Z,1012.26
2016-09-16T21:09:26.999Z,1012.26
2016-09-16T21:10:07.714Z,1012.24
2016-09-16T21:10:48.359Z,1012.22
2016-09-16T21:11:29.043Z,1012.26
2016-09-16T21:12:09.719Z,1012.26
2016-09-16T21:12:50.352Z,1012.27
2016-09-16T21:13:31.068Z,1012.26
2016-09-16T21:14:11.737Z,1012.27
2016-09-16T21:14:52.395Z,1012.26
2016-09-16T21:15:33.073Z,1012.28
2016-09-16T21:16:13.740Z,1012.22
2016-09-16T21:16:54.408Z,1012.27
2016-09-16T21:17:35.074Z,1012.19
2016-09-16T21:18:15.781Z,1012.23
2016-09-16T21:18:56.495Z,1012.24
2016-09-16T21:19:37.167Z,1012.22
2016-09-16T21:20:17.895Z,1012.24
2016-09-16T21:20:58.603Z,1012.21
2016-09-16T21:21:39.278Z,1012.24
2016-09-16T21:22:19.932Z,1012.21
2016-09-16T21:23:00.609Z,1012.24
2016-09-16T21:23:41.274Z,1012.19
2016-09-16T21:24:21.905Z,1012.24
2016-09-16T21:25:02.611Z,1012.18
2016-09-16T21:25:43.259Z,1012.23
2016-09-16T21:26:23.949Z,1012.23
2016-09-16T21:27:04.606Z,1012.28
2016-09-16T21:27:45.318Z,1012.23
2016-09-16T21:28:25.994Z,1012.27
2016-09-16T21:29:06.689Z,1012.27
2016-09-16T21:29:47.376Z,1012.25
2016-09-16T21:30:28.044Z,1012.25
2016-09-16T21:31:08.730Z,1012.25
2016-09-16T21:31:49.408Z,1012.24
2016-09-16T21:32:30.069Z,1012.28
2016-09-16T21:33:10.755Z,1012.31
2016-09-16T21:33:51.425Z,1012.33
2016-09-16T21:34:32.064Z,1012.39
2016-09-16T21:35:12.742Z,1012.41
2016-09-16T21:35:53.454Z,1012.4
2016-09-16T21:36:34.137Z,1012.45
2016-09-16T21:37:14.828Z,1012.44
2016-09-16T21:37:55.494Z,1012.47
2016-09-16T21:38:36.146Z,1012.48
2016-09-16T21:39:16.840Z,1012.47
2016-09-16T21:39:57.502Z,1012.51
2016-09-16T21:40:38.180Z,1012.53
2016-09-16T21:41:18.862Z,1012.52
2016-09-16T21:41:59.600Z,1012.52
2016-09-16T21:42:40.288Z,1012.5
2016-09-16T21:43:20.971Z,1012.51
2016-09-16T21:44:01.697Z,1012.52
2016-09-16T21:44:42.382Z,1012.54
2016-09-16T21:45:23.100Z,1012.48
2016-09-16T21:46:03.779Z,1012.5
2016-09-16T21:46:44.482Z,1012.48
2016-09-16T21:47:25.175Z,1012.49
2016-09-16T21:48:05.892Z,1012.48
2016-09-16T21:48:46.588Z,1012.47
2016-09-16T21:49:27.241Z,1012.47
2016-09-16T21:50:07.954Z,1012.5
2016-09-16T21:50:48.624Z,1012.51
2016-09-16T21:51:29.353Z,1012.49
2016-09-16T21:52:10.036Z,1012.5
2016-09-16T21:52:50.780Z,1012.47
2016-09-16T21:53:31.445Z,1012.52
2016-09-16T21:54:12.134Z,1012.52
2016-09-16T21:54:52.821Z,1012.47
2016-09-16T21:55:33.526Z,1012.54
2016-09-16T21:56:14.185Z,1012.47
2016-09-16T21:56:54.915Z,1012.43
2016-09-16T21:57:35.610Z,1012.41
2016-09-16T21:58:16.279Z,1012.45
2016-09-16T21:58:56.956Z,1012.41